sensor_id;sensor_type;location;lat;lon;timestamp;temperature;humidity
19152;DHT22;9708;53.114;9.388;2024-01-15T00:01:06;2.00;99.90
19152;DHT22;9708;53.114;9.388;2024-01-15T00:03:35;2.00;99.90
19152;DHT22;9708;53.114;9.388;2024-01-15T00:06:02;2.00;99.90
19152;DHT22;9708;53.114;9.388;2024-01-15T00:08:29;2.10;99.90
19152;DHT22;9708;53.114;9.388;2024-01-15T00:10:56;2.10;99.90
19152;DHT22;9708;53.114;9.388;2024-01-15T00:13:23;2.10;99.90
19152;DHT22;9708;53.114;9.388;2024-01-15T00:15:49;2.20;99.90
19152;DHT22;9708;53.114;9.388;2024-01-15T00:18:16;2.20;99.90
19152;DHT22;9708;53.114;9.388;2024-01-15T00:20:45;2.30;99.90
19152;DHT22;9708;53.114;9.388;2024-01-15T00:23:12;2.20;99.90
19152;DHT22;9708;53.114;9.388;2024-01-15T00:25:38;2.20;99.90
19152;DHT22;9708;53.114;9.388;2024-01-15T00:28:05;2.20;99.90
19152;DHT22;9708;53.114;9.388;2024-01-15T00:30:32;2.10;99.90
19152;DHT22;9708;53.114;9.388;2024-01-15T00:32:59;2.10;99.90
19152;DHT22;9708;53.114;9.388;2024-01-15T00:35:26;2.10;99.90
19152;DHT22;9708;53.114;9.388;2024-01-15T00:37:54;2.20;99.90
19152;DHT22;9708;53.114;9.388;2024-01-15T00:40:21;2.30;99.90
19152;DHT22;9708;53.114;9.388;2024-01-15T00:42:48;2.30;99.90
19152;DHT22;9708;53.114;9.388;2024-01-15T00:45:14;2.30;99.90
19152;DHT22;9708;53.114;9.388;2024-01-15T00:47:41;2.40;99.90
19152;DHT22;9708;53.114;9.388;2024-01-15T00:50:09;2.40;99.90
19152;DHT22;9708;53.114;9.388;2024-01-15T00:52:36;2.50;99.90
19152;DHT22;9708;53.114;9.388;2024-01-15T00:55:05;2.50;99.90
19152;DHT22;9708;53.114;9.388;2024-01-15T00:57:32;2.50;99.90
19152;DHT22;9708;53.114;9.388;2024-01-15T00:59:59;2.50;99.90
19152;DHT22;9708;53.114;9.388;2024-01-15T01:02:26;2.40;99.90
19152;DHT22;9708;53.114;9.388;2024-01-15T01:04:53;2.50;99.90
19152;DHT22;9708;53.114;9.388;2024-01-15T01:07:20;2.50;99.90
19152;DHT22;9708;53.114;9.388;2024-01-15T01:09:47;2.60;99.90
19152;DHT22;9708;53.114;9.388;2024-01-15T01:12:15;2.50;99.90
19152;DHT22;9708;53.114;9.388;2024-01-15T01:14:42;2.60;99.90
19152;DHT22;9708;53.114;9.388;2024-01-15T01:17:09;2.60;99.90
19152;DHT22;9708;53.114;9.388;2024-01-15T01:19:35;2.60;99.90
19152;DHT22;9708;53.114;9.388;2024-01-15T01:22:02;2.60;99.90
19152;DHT22;9708;53.114;9.388;2024-01-15T01:24:29;2.60;99.90
19152;DHT22;9708;53.114;9.388;2024-01-15T01:26:56;2.60;99.90
19152;DHT22;9708;53.114;9.388;2024-01-15T01:29:24;2.50;99.90
19152;DHT22;9708;53.114;9.388;2024-01-15T01:31:51;2.60;99.90
19152;DHT22;9708;53.114;9.388;2024-01-15T01:34:18;2.60;99.90
19152;DHT22;9708;53.114;9.388;2024-01-15T01:36:45;2.70;99.90
19152;DHT22;9708;53.114;9.388;2024-01-15T01:39:12;2.70;99.90
19152;DHT22;9708;53.114;9.388;2024-01-15T01:41:39;2.60;99.90
19152;DHT22;9708;53.114;9.388;2024-01-15T01:44:06;2.60;99.90
19152;DHT22;9708;53.114;9.388;2024-01-15T01:46:36;2.50;99.90
19152;DHT22;9708;53.114;9.388;2024-01-15T01:49:06;2.60;99.90
19152;DHT22;9708;53.114;9.388;2024-01-15T01:51:34;2.60;99.90
19152;DHT22;9708;53.114;9.388;2024-01-15T01:54:03;2.60;99.90
19152;DHT22;9708;53.114;9.388;2024-01-15T01:56:30;2.60;99.90
19152;DHT22;9708;53.114;9.388;2024-01-15T01:58:58;2.50;99.90
19152;DHT22;9708;53.114;9.388;2024-01-15T02:01:25;2.50;99.90
19152;DHT22;9708;53.114;9.388;2024-01-15T02:03:53;2.60;99.90
19152;DHT22;9708;53.114;9.388;2024-01-15T02:06:22;2.60;99.90
19152;DHT22;9708;53.114;9.388;2024-01-15T02:08:49;2.60;99.90
19152;DHT22;9708;53.114;9.388;2024-01-15T02:11:16;2.60;99.90
19152;DHT22;9708;53.114;9.388;2024-01-15T02:13:43;2.60;99.90
19152;DHT22;9708;53.114;9.388;2024-01-15T02:16:10;2.60;99.90
19152;DHT22;9708;53.114;9.388;2024-01-15T02:18:41;2.60;99.90
19152;DHT22;9708;53.114;9.388;2024-01-15T02:21:10;2.60;99.90
19152;DHT22;9708;53.114;9.388;2024-01-15T02:23:39;2.50;99.90
19152;DHT22;9708;53.114;9.388;2024-01-15T02:26:05;2.50;99.90
19152;DHT22;9708;53.114;9.388;2024-01-15T02:28:33;2.60;99.90
19152;DHT22;9708;53.114;9.388;2024-01-15T02:31:00;2.60;99.90
19152;DHT22;9708;53.114;9.388;2024-01-15T02:33:26;2.70;99.90
19152;DHT22;9708;53.114;9.388;2024-01-15T02:35:53;2.70;99.90
19152;DHT22;9708;53.114;9.388;2024-01-15T02:38:20;2.60;99.90
19152;DHT22;9708;53.114;9.388;2024-01-15T02:40:49;2.60;99.90
19152;DHT22;9708;53.114;9.388;2024-01-15T02:43:16;2.60;99.90
19152;DHT22;9708;53.114;9.388;2024-01-15T02:45:44;2.70;99.90
19152;DHT22;9708;53.114;9.388;2024-01-15T02:48:11;2.60;99.90
19152;DHT22;9708;53.114;9.388;2024-01-15T02:50:38;2.70;99.90
19152;DHT22;9708;53.114;9.388;2024-01-15T02:53:05;2.70;99.90
19152;DHT22;9708;53.114;9.388;2024-01-15T02:55:32;2.70;99.90
19152;DHT22;9708;53.114;9.388;2024-01-15T02:58:00;2.70;99.90
19152;DHT22;9708;53.114;9.388;2024-01-15T03:00:27;2.70;99.90
19152;DHT22;9708;53.114;9.388;2024-01-15T03:02:54;2.70;99.90
19152;DHT22;9708;53.114;9.388;2024-01-15T03:05:21;2.70;99.90
19152;DHT22;9708;53.114;9.388;2024-01-15T03:07:48;2.70;99.90
19152;DHT22;9708;53.114;9.388;2024-01-15T03:10:15;2.70;99.90
19152;DHT22;9708;53.114;9.388;2024-01-15T03:12:42;2.70;99.90
19152;DHT22;9708;53.114;9.388;2024-01-15T03:15:10;2.60;99.90
19152;DHT22;9708;53.114;9.388;2024-01-15T03:17:37;2.60;99.90
19152;DHT22;9708;53.114;9.388;2024-01-15T03:20:05;2.60;99.90
19152;DHT22;9708;53.114;9.388;2024-01-15T03:22:32;2.60;99.90
19152;DHT22;9708;53.114;9.388;2024-01-15T03:24:59;2.60;99.90
19152;DHT22;9708;53.114;9.388;2024-01-15T03:27:26;2.70;99.90
19152;DHT22;9708;53.114;9.388;2024-01-15T03:29:52;2.70;99.90
19152;DHT22;9708;53.114;9.388;2024-01-15T03:32:21;2.70;99.90
19152;DHT22;9708;53.114;9.388;2024-01-15T03:34:47;2.70;99.90
19152;DHT22;9708;53.114;9.388;2024-01-15T03:37:15;2.70;99.90
19152;DHT22;9708;53.114;9.388;2024-01-15T03:39:41;2.60;99.90
19152;DHT22;9708;53.114;9.388;2024-01-15T03:42:08;2.50;99.90
19152;DHT22;9708;53.114;9.388;2024-01-15T03:44:35;2.50;99.90
19152;DHT22;9708;53.114;9.388;2024-01-15T03:47:02;2.40;99.90
19152;DHT22;9708;53.114;9.388;2024-01-15T03:49:31;2.40;99.90
19152;DHT22;9708;53.114;9.388;2024-01-15T03:51:58;2.30;99.90
19152;DHT22;9708;53.114;9.388;2024-01-15T03:54:24;2.40;99.90
19152;DHT22;9708;53.114;9.388;2024-01-15T03:56:52;2.30;99.90
19152;DHT22;9708;53.114;9.388;2024-01-15T03:59:19;2.30;99.90
19152;DHT22;9708;53.114;9.388;2024-01-15T04:01:48;2.30;99.90
19152;DHT22;9708;53.114;9.388;2024-01-15T04:04:16;2.30;99.90
19152;DHT22;9708;53.114;9.388;2024-01-15T04:06:44;2.30;99.90
19152;DHT22;9708;53.114;9.388;2024-01-15T04:09:12;2.30;99.90
19152;DHT22;9708;53.114;9.388;2024-01-15T04:11:39;2.40;99.90
19152;DHT22;9708;53.114;9.388;2024-01-15T04:14:06;2.40;99.90
19152;DHT22;9708;53.114;9.388;2024-01-15T04:16:33;2.40;99.90
19152;DHT22;9708;53.114;9.388;2024-01-15T04:19:00;2.50;99.90
19152;DHT22;9708;53.114;9.388;2024-01-15T04:21:27;2.40;99.90
19152;DHT22;9708;53.114;9.388;2024-01-15T04:23:55;2.40;99.90
19152;DHT22;9708;53.114;9.388;2024-01-15T04:26:22;2.40;99.90
19152;DHT22;9708;53.114;9.388;2024-01-15T04:28:48;2.50;99.90
19152;DHT22;9708;53.114;9.388;2024-01-15T04:31:22;2.50;99.90
19152;DHT22;9708;53.114;9.388;2024-01-15T04:33:49;2.50;99.90
19152;DHT22;9708;53.114;9.388;2024-01-15T04:36:16;2.50;99.90
19152;DHT22;9708;53.114;9.388;2024-01-15T04:38:43;2.40;99.90
19152;DHT22;9708;53.114;9.388;2024-01-15T04:41:12;2.40;99.90
19152;DHT22;9708;53.114;9.388;2024-01-15T04:43:39;2.50;99.90
19152;DHT22;9708;53.114;9.388;2024-01-15T04:46:06;2.50;99.90
19152;DHT22;9708;53.114;9.388;2024-01-15T04:48:33;2.40;99.90
19152;DHT22;9708;53.114;9.388;2024-01-15T04:51:01;2.50;99.90
19152;DHT22;9708;53.114;9.388;2024-01-15T04:53:30;2.50;99.90
19152;DHT22;9708;53.114;9.388;2024-01-15T04:55:57;2.50;99.90
19152;DHT22;9708;53.114;9.388;2024-01-15T04:58:25;2.50;99.90
19152;DHT22;9708;53.114;9.388;2024-01-15T05:00:53;2.40;99.90
19152;DHT22;9708;53.114;9.388;2024-01-15T05:03:19;2.40;99.90
19152;DHT22;9708;53.114;9.388;2024-01-15T05:05:46;2.50;99.90
19152;DHT22;9708;53.114;9.388;2024-01-15T05:08:13;2.50;99.90
19152;DHT22;9708;53.114;9.388;2024-01-15T05:10:40;2.50;99.90
19152;DHT22;9708;53.114;9.388;2024-01-15T05:13:07;2.40;99.90
19152;DHT22;9708;53.114;9.388;2024-01-15T05:15:35;2.40;99.90
19152;DHT22;9708;53.114;9.388;2024-01-15T05:18:02;2.50;99.90
19152;DHT22;9708;53.114;9.388;2024-01-15T05:20:29;2.50;99.90
19152;DHT22;9708;53.114;9.388;2024-01-15T05:22:56;2.60;99.90
19152;DHT22;9708;53.114;9.388;2024-01-15T05:25:23;2.60;99.90
19152;DHT22;9708;53.114;9.388;2024-01-15T05:27:50;2.60;99.90
19152;DHT22;9708;53.114;9.388;2024-01-15T05:30:17;2.60;99.90
19152;DHT22;9708;53.114;9.388;2024-01-15T05:32:45;2.60;99.90
19152;DHT22;9708;53.114;9.388;2024-01-15T05:35:12;2.60;99.90
19152;DHT22;9708;53.114;9.388;2024-01-15T05:37:43;2.50;99.90
19152;DHT22;9708;53.114;9.388;2024-01-15T05:40:10;2.50;99.90
19152;DHT22;9708;53.114;9.388;2024-01-15T05:42:38;2.40;99.90
19152;DHT22;9708;53.114;9.388;2024-01-15T05:45:05;2.40;99.90
19152;DHT22;9708;53.114;9.388;2024-01-15T05:47:32;2.40;99.90
19152;DHT22;9708;53.114;9.388;2024-01-15T05:50:01;2.40;99.90
19152;DHT22;9708;53.114;9.388;2024-01-15T05:52:28;2.40;99.90
19152;DHT22;9708;53.114;9.388;2024-01-15T05:54:55;2.30;99.90
19152;DHT22;9708;53.114;9.388;2024-01-15T05:57:22;2.30;99.90
19152;DHT22;9708;53.114;9.388;2024-01-15T05:59:49;2.30;99.90
19152;DHT22;9708;53.114;9.388;2024-01-15T06:02:16;2.40;99.90
19152;DHT22;9708;53.114;9.388;2024-01-15T06:04:43;2.40;99.90
19152;DHT22;9708;53.114;9.388;2024-01-15T06:07:11;2.40;99.90
19152;DHT22;9708;53.114;9.388;2024-01-15T06:09:38;2.40;99.90
19152;DHT22;9708;53.114;9.388;2024-01-15T06:12:06;2.40;99.90
19152;DHT22;9708;53.114;9.388;2024-01-15T06:14:33;2.50;99.90
19152;DHT22;9708;53.114;9.388;2024-01-15T06:17:00;2.40;99.90
19152;DHT22;9708;53.114;9.388;2024-01-15T06:19:27;2.50;99.90
19152;DHT22;9708;53.114;9.388;2024-01-15T06:21:54;2.40;99.90
19152;DHT22;9708;53.114;9.388;2024-01-15T06:24:22;2.40;99.90
19152;DHT22;9708;53.114;9.388;2024-01-15T06:26:49;2.40;99.90
19152;DHT22;9708;53.114;9.388;2024-01-15T06:29:16;2.40;99.90
19152;DHT22;9708;53.114;9.388;2024-01-15T06:31:42;2.40;99.90
19152;DHT22;9708;53.114;9.388;2024-01-15T06:34:09;2.40;99.90
19152;DHT22;9708;53.114;9.388;2024-01-15T06:36:36;2.40;99.90
19152;DHT22;9708;53.114;9.388;2024-01-15T06:39:06;2.40;99.90
19152;DHT22;9708;53.114;9.388;2024-01-15T06:41:34;2.30;99.90
19152;DHT22;9708;53.114;9.388;2024-01-15T06:44:07;2.40;99.90
19152;DHT22;9708;53.114;9.388;2024-01-15T06:46:35;2.40;99.90
19152;DHT22;9708;53.114;9.388;2024-01-15T06:49:01;2.30;99.90
19152;DHT22;9708;53.114;9.388;2024-01-15T06:51:29;2.30;99.90
19152;DHT22;9708;53.114;9.388;2024-01-15T06:53:56;2.20;99.90
19152;DHT22;9708;53.114;9.388;2024-01-15T06:56:22;2.20;99.90
19152;DHT22;9708;53.114;9.388;2024-01-15T06:58:51;2.20;99.90
19152;DHT22;9708;53.114;9.388;2024-01-15T07:01:18;2.30;99.90
19152;DHT22;9708;53.114;9.388;2024-01-15T07:03:44;2.20;99.90
19152;DHT22;9708;53.114;9.388;2024-01-15T07:06:11;2.30;99.90
19152;DHT22;9708;53.114;9.388;2024-01-15T07:08:39;2.20;99.90
19152;DHT22;9708;53.114;9.388;2024-01-15T07:11:06;2.20;99.90
19152;DHT22;9708;53.114;9.388;2024-01-15T07:13:33;2.10;99.90
19152;DHT22;9708;53.114;9.388;2024-01-15T07:16:01;2.10;99.90
19152;DHT22;9708;53.114;9.388;2024-01-15T07:18:28;2.10;99.90
19152;DHT22;9708;53.114;9.388;2024-01-15T07:20:55;2.20;99.90
19152;DHT22;9708;53.114;9.388;2024-01-15T07:23:22;2.20;99.90
19152;DHT22;9708;53.114;9.388;2024-01-15T07:25:49;2.20;99.90
19152;DHT22;9708;53.114;9.388;2024-01-15T07:28:16;2.20;99.90
19152;DHT22;9708;53.114;9.388;2024-01-15T07:30:43;2.20;99.90
19152;DHT22;9708;53.114;9.388;2024-01-15T07:33:11;2.30;99.90
19152;DHT22;9708;53.114;9.388;2024-01-15T07:35:39;2.20;99.90
19152;DHT22;9708;53.114;9.388;2024-01-15T07:38:05;2.30;99.90
19152;DHT22;9708;53.114;9.388;2024-01-15T07:40:33;2.30;99.90
19152;DHT22;9708;53.114;9.388;2024-01-15T07:43:00;2.30;99.90
19152;DHT22;9708;53.114;9.388;2024-01-15T07:45:27;2.40;99.90
19152;DHT22;9708;53.114;9.388;2024-01-15T07:47:54;2.40;99.90
19152;DHT22;9708;53.114;9.388;2024-01-15T07:50:22;2.40;99.90
19152;DHT22;9708;53.114;9.388;2024-01-15T07:52:49;2.40;99.90
19152;DHT22;9708;53.114;9.388;2024-01-15T07:55:16;2.40;99.90
19152;DHT22;9708;53.114;9.388;2024-01-15T07:57:43;2.40;99.90
19152;DHT22;9708;53.114;9.388;2024-01-15T08:00:10;2.20;99.90
19152;DHT22;9708;53.114;9.388;2024-01-15T08:02:37;2.20;99.90
19152;DHT22;9708;53.114;9.388;2024-01-15T08:05:04;2.10;99.90
19152;DHT22;9708;53.114;9.388;2024-01-15T08:07:33;2.20;99.90
19152;DHT22;9708;53.114;9.388;2024-01-15T08:10:00;2.10;99.90
19152;DHT22;9708;53.114;9.388;2024-01-15T08:12:27;2.10;99.90
19152;DHT22;9708;53.114;9.388;2024-01-15T08:14:53;2.00;99.90
19152;DHT22;9708;53.114;9.388;2024-01-15T08:17:20;2.10;99.90
19152;DHT22;9708;53.114;9.388;2024-01-15T08:19:47;2.10;99.90
19152;DHT22;9708;53.114;9.388;2024-01-15T08:22:14;2.10;99.90
19152;DHT22;9708;53.114;9.388;2024-01-15T08:24:44;2.10;99.90
19152;DHT22;9708;53.114;9.388;2024-01-15T08:27:11;2.10;99.90
19152;DHT22;9708;53.114;9.388;2024-01-15T08:29:38;2.10;99.90
19152;DHT22;9708;53.114;9.388;2024-01-15T08:32:05;2.10;99.90
19152;DHT22;9708;53.114;9.388;2024-01-15T08:34:32;2.10;99.90
19152;DHT22;9708;53.114;9.388;2024-01-15T08:36:59;2.20;99.90
19152;DHT22;9708;53.114;9.388;2024-01-15T08:39:25;2.20;99.90
19152;DHT22;9708;53.114;9.388;2024-01-15T08:41:54;2.20;99.90
19152;DHT22;9708;53.114;9.388;2024-01-15T08:44:20;2.10;99.90
19152;DHT22;9708;53.114;9.388;2024-01-15T08:46:47;2.10;99.90
19152;DHT22;9708;53.114;9.388;2024-01-15T08:49:14;2.10;99.90
19152;DHT22;9708;53.114;9.388;2024-01-15T08:51:41;2.10;99.90
19152;DHT22;9708;53.114;9.388;2024-01-15T08:54:08;2.00;99.90
19152;DHT22;9708;53.114;9.388;2024-01-15T08:56:37;1.90;99.90
19152;DHT22;9708;53.114;9.388;2024-01-15T08:59:07;1.90;99.90
19152;DHT22;9708;53.114;9.388;2024-01-15T09:01:33;1.90;99.90
19152;DHT22;9708;53.114;9.388;2024-01-15T09:04:00;1.80;99.90
19152;DHT22;9708;53.114;9.388;2024-01-15T09:06:27;1.90;99.90
19152;DHT22;9708;53.114;9.388;2024-01-15T09:08:54;1.80;99.90
19152;DHT22;9708;53.114;9.388;2024-01-15T09:11:21;1.80;99.90
19152;DHT22;9708;53.114;9.388;2024-01-15T09:13:47;1.80;99.90
19152;DHT22;9708;53.114;9.388;2024-01-15T09:16:16;1.80;99.90
19152;DHT22;9708;53.114;9.388;2024-01-15T09:18:42;1.80;99.90
19152;DHT22;9708;53.114;9.388;2024-01-15T09:21:09;1.70;99.90
19152;DHT22;9708;53.114;9.388;2024-01-15T09:23:38;1.70;99.90
19152;DHT22;9708;53.114;9.388;2024-01-15T09:26:06;1.70;99.90
19152;DHT22;9708;53.114;9.388;2024-01-15T09:28:34;1.70;99.90
19152;DHT22;9708;53.114;9.388;2024-01-15T09:31:01;1.80;99.90
19152;DHT22;9708;53.114;9.388;2024-01-15T09:33:29;1.80;99.90
19152;DHT22;9708;53.114;9.388;2024-01-15T09:35:56;1.80;99.90
19152;DHT22;9708;53.114;9.388;2024-01-15T09:38:23;1.90;99.90
19152;DHT22;9708;53.114;9.388;2024-01-15T09:40:50;1.90;99.90
19152;DHT22;9708;53.114;9.388;2024-01-15T09:43:18;1.90;99.90
19152;DHT22;9708;53.114;9.388;2024-01-15T09:45:45;2.10;99.90
19152;DHT22;9708;53.114;9.388;2024-01-15T09:48:13;2.20;99.90
19152;DHT22;9708;53.114;9.388;2024-01-15T09:50:41;2.20;99.90
19152;DHT22;9708;53.114;9.388;2024-01-15T09:53:09;2.20;99.90
19152;DHT22;9708;53.114;9.388;2024-01-15T09:55:36;2.30;99.90
19152;DHT22;9708;53.114;9.388;2024-01-15T09:58:04;2.30;99.90
19152;DHT22;9708;53.114;9.388;2024-01-15T10:00:32;2.40;99.90
19152;DHT22;9708;53.114;9.388;2024-01-15T10:03:03;2.40;99.90
19152;DHT22;9708;53.114;9.388;2024-01-15T10:05:30;2.50;99.90
19152;DHT22;9708;53.114;9.388;2024-01-15T10:08:01;2.40;99.90
19152;DHT22;9708;53.114;9.388;2024-01-15T10:10:29;2.50;99.90
19152;DHT22;9708;53.114;9.388;2024-01-15T10:12:58;2.50;99.90
19152;DHT22;9708;53.114;9.388;2024-01-15T10:15:26;2.50;99.90
19152;DHT22;9708;53.114;9.388;2024-01-15T10:17:53;2.60;99.90
19152;DHT22;9708;53.114;9.388;2024-01-15T10:20:20;2.70;99.90
19152;DHT22;9708;53.114;9.388;2024-01-15T10:22:48;2.70;99.90
19152;DHT22;9708;53.114;9.388;2024-01-15T10:25:18;2.70;99.90
19152;DHT22;9708;53.114;9.388;2024-01-15T10:27:59;2.80;99.90
19152;DHT22;9708;53.114;9.388;2024-01-15T10:30:26;2.80;99.90
19152;DHT22;9708;53.114;9.388;2024-01-15T10:32:57;2.80;99.90
19152;DHT22;9708;53.114;9.388;2024-01-15T10:35:27;2.80;99.90
19152;DHT22;9708;53.114;9.388;2024-01-15T10:37:54;2.80;99.90
19152;DHT22;9708;53.114;9.388;2024-01-15T10:40:22;2.80;99.90
19152;DHT22;9708;53.114;9.388;2024-01-15T10:42:50;2.70;99.90
19152;DHT22;9708;53.114;9.388;2024-01-15T10:45:17;2.70;99.90
19152;DHT22;9708;53.114;9.388;2024-01-15T10:47:44;2.70;99.90
19152;DHT22;9708;53.114;9.388;2024-01-15T10:50:11;2.80;99.90
19152;DHT22;9708;53.114;9.388;2024-01-15T10:52:40;2.70;99.90
19152;DHT22;9708;53.114;9.388;2024-01-15T10:55:08;2.70;99.90
19152;DHT22;9708;53.114;9.388;2024-01-15T10:57:37;2.80;99.90
19152;DHT22;9708;53.114;9.388;2024-01-15T11:00:05;2.80;99.90
19152;DHT22;9708;53.114;9.388;2024-01-15T11:02:33;2.80;99.90
19152;DHT22;9708;53.114;9.388;2024-01-15T11:05:01;2.70;99.90
19152;DHT22;9708;53.114;9.388;2024-01-15T11:07:30;2.70;99.90
19152;DHT22;9708;53.114;9.388;2024-01-15T11:09:57;2.70;99.90
19152;DHT22;9708;53.114;9.388;2024-01-15T11:12:24;2.60;99.90
19152;DHT22;9708;53.114;9.388;2024-01-15T11:15:01;2.70;99.90
19152;DHT22;9708;53.114;9.388;2024-01-15T11:17:59;2.70;99.90
19152;DHT22;9708;53.114;9.388;2024-01-15T11:20:26;2.70;99.90
19152;DHT22;9708;53.114;9.388;2024-01-15T11:22:53;2.80;99.90
19152;DHT22;9708;53.114;9.388;2024-01-15T11:25:22;3.00;99.90
19152;DHT22;9708;53.114;9.388;2024-01-15T11:27:51;2.90;99.90
19152;DHT22;9708;53.114;9.388;2024-01-15T11:30:19;2.90;99.90
19152;DHT22;9708;53.114;9.388;2024-01-15T11:32:46;2.90;99.90
19152;DHT22;9708;53.114;9.388;2024-01-15T11:35:13;2.90;99.90
19152;DHT22;9708;53.114;9.388;2024-01-15T11:37:59;2.80;99.90
19152;DHT22;9708;53.114;9.388;2024-01-15T11:40:39;2.80;99.90
19152;DHT22;9708;53.114;9.388;2024-01-15T11:43:08;2.80;99.90
19152;DHT22;9708;53.114;9.388;2024-01-15T11:45:37;2.80;99.90
19152;DHT22;9708;53.114;9.388;2024-01-15T11:48:10;2.90;99.90
19152;DHT22;9708;53.114;9.388;2024-01-15T11:50:39;2.90;99.90
19152;DHT22;9708;53.114;9.388;2024-01-15T11:55:58;2.70;99.90
19152;DHT22;9708;53.114;9.388;2024-01-15T11:58:26;2.70;99.90
19152;DHT22;9708;53.114;9.388;2024-01-15T12:00:54;2.80;99.90
19152;DHT22;9708;53.114;9.388;2024-01-15T12:03:21;2.70;99.90
19152;DHT22;9708;53.114;9.388;2024-01-15T12:05:48;2.60;99.90
19152;DHT22;9708;53.114;9.388;2024-01-15T12:08:21;2.50;99.90
19152;DHT22;9708;53.114;9.388;2024-01-15T12:10:47;2.50;99.90
19152;DHT22;9708;53.114;9.388;2024-01-15T12:13:15;2.50;99.90
19152;DHT22;9708;53.114;9.388;2024-01-15T12:15:43;2.50;99.90
19152;DHT22;9708;53.114;9.388;2024-01-15T12:18:13;2.50;99.90
19152;DHT22;9708;53.114;9.388;2024-01-15T12:20:41;2.70;99.90
19152;DHT22;9708;53.114;9.388;2024-01-15T12:23:08;2.70;99.90
19152;DHT22;9708;53.114;9.388;2024-01-15T12:25:36;2.80;99.90
19152;DHT22;9708;53.114;9.388;2024-01-15T12:28:03;2.90;99.90
19152;DHT22;9708;53.114;9.388;2024-01-15T12:30:32;3.00;99.90
19152;DHT22;9708;53.114;9.388;2024-01-15T12:33:01;3.10;99.90
19152;DHT22;9708;53.114;9.388;2024-01-15T12:35:30;3.00;99.90
19152;DHT22;9708;53.114;9.388;2024-01-15T12:37:59;2.90;99.90
19152;DHT22;9708;53.114;9.388;2024-01-15T12:40:26;2.70;99.90
19152;DHT22;9708;53.114;9.388;2024-01-15T12:42:53;2.80;99.90
19152;DHT22;9708;53.114;9.388;2024-01-15T12:45:19;2.80;99.90
19152;DHT22;9708;53.114;9.388;2024-01-15T12:47:46;2.80;99.90
19152;DHT22;9708;53.114;9.388;2024-01-15T12:50:14;2.90;99.90
19152;DHT22;9708;53.114;9.388;2024-01-15T12:52:42;2.90;99.90
19152;DHT22;9708;53.114;9.388;2024-01-15T12:55:11;2.80;99.90
19152;DHT22;9708;53.114;9.388;2024-01-15T12:57:38;2.80;99.90
19152;DHT22;9708;53.114;9.388;2024-01-15T13:00:06;2.80;99.90
19152;DHT22;9708;53.114;9.388;2024-01-15T13:02:37;2.90;99.90
19152;DHT22;9708;53.114;9.388;2024-01-15T13:05:05;3.00;99.90
19152;DHT22;9708;53.114;9.388;2024-01-15T13:07:32;3.10;99.90
19152;DHT22;9708;53.114;9.388;2024-01-15T13:10:01;3.20;99.90
19152;DHT22;9708;53.114;9.388;2024-01-15T13:12:28;3.20;99.90
19152;DHT22;9708;53.114;9.388;2024-01-15T13:14:55;3.30;99.90
19152;DHT22;9708;53.114;9.388;2024-01-15T13:17:23;3.20;99.90
19152;DHT22;9708;53.114;9.388;2024-01-15T13:19:50;3.10;99.90
19152;DHT22;9708;53.114;9.388;2024-01-15T13:22:17;3.00;99.90
19152;DHT22;9708;53.114;9.388;2024-01-15T13:24:44;2.80;99.90
19152;DHT22;9708;53.114;9.388;2024-01-15T13:27:13;2.80;99.90
19152;DHT22;9708;53.114;9.388;2024-01-15T13:29:39;2.70;99.90
19152;DHT22;9708;53.114;9.388;2024-01-15T13:32:06;2.60;99.90
19152;DHT22;9708;53.114;9.388;2024-01-15T13:34:33;2.50;99.90
19152;DHT22;9708;53.114;9.388;2024-01-15T13:37:00;2.60;99.90
19152;DHT22;9708;53.114;9.388;2024-01-15T13:39:27;2.60;99.90
19152;DHT22;9708;53.114;9.388;2024-01-15T13:41:58;2.60;99.90
19152;DHT22;9708;53.114;9.388;2024-01-15T13:44:26;2.50;99.90
19152;DHT22;9708;53.114;9.388;2024-01-15T13:46:54;2.40;99.90
19152;DHT22;9708;53.114;9.388;2024-01-15T13:49:22;2.40;99.90
19152;DHT22;9708;53.114;9.388;2024-01-15T13:51:49;2.30;99.90
19152;DHT22;9708;53.114;9.388;2024-01-15T13:54:16;2.30;99.90
19152;DHT22;9708;53.114;9.388;2024-01-15T13:56:43;2.20;99.90
19152;DHT22;9708;53.114;9.388;2024-01-15T13:59:11;2.20;99.90
19152;DHT22;9708;53.114;9.388;2024-01-15T14:01:39;2.30;99.90
19152;DHT22;9708;53.114;9.388;2024-01-15T14:04:06;2.20;99.90
19152;DHT22;9708;53.114;9.388;2024-01-15T14:06:33;2.20;99.90
19152;DHT22;9708;53.114;9.388;2024-01-15T14:09:00;2.30;99.90
19152;DHT22;9708;53.114;9.388;2024-01-15T14:11:29;2.20;99.90
19152;DHT22;9708;53.114;9.388;2024-01-15T14:13:56;2.30;99.90
19152;DHT22;9708;53.114;9.388;2024-01-15T14:16:23;2.30;99.90
19152;DHT22;9708;53.114;9.388;2024-01-15T14:18:52;2.30;99.90
19152;DHT22;9708;53.114;9.388;2024-01-15T14:21:19;2.40;99.90
19152;DHT22;9708;53.114;9.388;2024-01-15T14:23:46;2.30;99.90
19152;DHT22;9708;53.114;9.388;2024-01-15T14:26:12;2.50;99.90
19152;DHT22;9708;53.114;9.388;2024-01-15T14:28:39;2.50;99.90
19152;DHT22;9708;53.114;9.388;2024-01-15T14:31:06;2.40;99.90
19152;DHT22;9708;53.114;9.388;2024-01-15T14:33:33;2.40;99.90
19152;DHT22;9708;53.114;9.388;2024-01-15T14:36:01;2.40;99.90
19152;DHT22;9708;53.114;9.388;2024-01-15T14:38:28;2.60;99.90
19152;DHT22;9708;53.114;9.388;2024-01-15T14:40:55;2.70;99.90
19152;DHT22;9708;53.114;9.388;2024-01-15T14:43:22;2.70;99.90
19152;DHT22;9708;53.114;9.388;2024-01-15T14:45:49;2.60;99.90
19152;DHT22;9708;53.114;9.388;2024-01-15T14:48:15;2.70;99.90
19152;DHT22;9708;53.114;9.388;2024-01-15T14:50:42;2.70;99.90
19152;DHT22;9708;53.114;9.388;2024-01-15T14:53:10;2.50;99.90
19152;DHT22;9708;53.114;9.388;2024-01-15T14:55:37;2.60;99.90
19152;DHT22;9708;53.114;9.388;2024-01-15T14:58:04;2.50;99.90
19152;DHT22;9708;53.114;9.388;2024-01-15T15:00:33;2.50;99.90
19152;DHT22;9708;53.114;9.388;2024-01-15T15:03:00;2.50;99.90
19152;DHT22;9708;53.114;9.388;2024-01-15T15:05:27;2.50;99.90
19152;DHT22;9708;53.114;9.388;2024-01-15T15:07:54;2.40;99.90
19152;DHT22;9708;53.114;9.388;2024-01-15T15:10:22;2.40;99.90
19152;DHT22;9708;53.114;9.388;2024-01-15T15:12:49;2.50;99.90
19152;DHT22;9708;53.114;9.388;2024-01-15T15:15:16;2.40;99.90
19152;DHT22;9708;53.114;9.388;2024-01-15T15:17:43;2.30;99.90
19152;DHT22;9708;53.114;9.388;2024-01-15T15:20:11;2.30;99.90
19152;DHT22;9708;53.114;9.388;2024-01-15T15:22:38;2.40;99.90
19152;DHT22;9708;53.114;9.388;2024-01-15T15:25:05;2.30;99.90
19152;DHT22;9708;53.114;9.388;2024-01-15T15:27:35;2.20;99.90
19152;DHT22;9708;53.114;9.388;2024-01-15T15:30:03;2.40;99.90
19152;DHT22;9708;53.114;9.388;2024-01-15T15:32:30;2.30;99.90
19152;DHT22;9708;53.114;9.388;2024-01-15T15:34:56;2.30;99.90
19152;DHT22;9708;53.114;9.388;2024-01-15T15:37:23;2.30;99.90
19152;DHT22;9708;53.114;9.388;2024-01-15T15:39:50;2.10;99.90
19152;DHT22;9708;53.114;9.388;2024-01-15T15:42:17;2.10;99.90
19152;DHT22;9708;53.114;9.388;2024-01-15T15:44:46;2.00;99.90
19152;DHT22;9708;53.114;9.388;2024-01-15T15:47:13;1.90;99.90
19152;DHT22;9708;53.114;9.388;2024-01-15T15:49:40;1.90;99.90
19152;DHT22;9708;53.114;9.388;2024-01-15T15:52:07;1.90;99.90
19152;DHT22;9708;53.114;9.388;2024-01-15T15:54:34;1.90;99.90
19152;DHT22;9708;53.114;9.388;2024-01-15T15:57:01;1.90;99.90
19152;DHT22;9708;53.114;9.388;2024-01-15T15:59:29;2.00;99.90
19152;DHT22;9708;53.114;9.388;2024-01-15T16:01:57;2.00;99.90
19152;DHT22;9708;53.114;9.388;2024-01-15T16:04:24;2.10;99.90
19152;DHT22;9708;53.114;9.388;2024-01-15T16:06:51;2.10;99.90